Terminal Aerodrome Forecast
Issued by NWS

Home | Current Version | Previous Version | Text Only | Print | Product List | Glossary On
Versions: 1 2 3 4 5 6 7 8 9 10 11 12 13 14 15 16 17
000
FTUS44 KEPZ 241900 AAA
TAFDMN
TAF AMD
KDMN 241932Z 2420/2518 26017G26KT P6SM FEW090 FEW140 SCT250
     FM250300 29010KT P6SM FEW140 SCT250
     FM251700 27012G22KT P6SM SCT250=

USA.gov is the U.S. government's official web portal to all federal, state and local government web resources and services.